Time,TemperatureF,DewpointF,PressureIn,WindDirection,WindDirectionDegrees,WindSpeedMPH,WindSpeedGustMPH,Humidity,HourlyPrecipIn,Conditions,Clouds,dailyrainin,SoftwareType,DateUTC
2013-07-08 00:00:00,68.9,68.6,30.09,NW,305,0.0,0.0,99,0.00,RA,,0.00,WeatherDisplay:10.37,2013-07-08 04:00:00,
2013-07-08 01:00:00,68.6,68.3,30.09,NW,305,0.0,0.0,99,0.00,OVC,,0.00,WeatherDisplay:10.37,2013-07-08 05:00:00,
2013-07-08 02:00:00,68.3,68.0,30.08,NW,305,0.0,0.0,99,0.00,OVC,,0.00,WeatherDisplay:10.37,2013-07-08 06:00:00,
2013-07-08 03:00:00,68.3,68.0,30.08,NW,305,0.0,0.0,99,0.00,OVC,,0.00,WeatherDisplay:10.37,2013-07-08 07:00:00,
2013-07-08 04:00:00,68.1,67.8,30.07,NW,305,0.0,0.0,99,0.00,OVC,,0.00,WeatherDisplay:10.37,2013-07-08 08:00:00,
2013-07-08 05:00:00,67.8,67.5,30.08,SSW,211,0.0,1.0,99,0.00,BKN,,0.00,WeatherDisplay:10.37,2013-07-08 09:00:00,
2013-07-08 06:00:00,66.8,66.5,30.09,SSW,211,0.0,1.0,99,0.00,OVC,,0.00,WeatherDisplay:10.37,2013-07-08 10:00:00,
2013-07-08 07:00:00,67.0,66.7,30.10,West,274,0.0,1.0,99,0.00,OVC,,0.00,WeatherDisplay:10.37,2013-07-08 11:00:00,
2013-07-08 08:00:00,68.0,67.7,30.11,West,269,0.0,1.0,99,0.00,OVC,,0.00,WeatherDisplay:10.37,2013-07-08 12:00:00,
2013-07-08 09:00:00,71.0,69.8,30.11,East,84,0.0,1.0,96,0.00,OVC,,0.00,WeatherDisplay:10.37,2013-07-08 13:00:00,
2013-07-08 10:00:00,75.7,71.2,30.11,SE,144,1.0,2.0,86,0.00,CLR,,0.00,WeatherDisplay:10.37,2013-07-08 14:00:00,
2013-07-08 11:00:00,78.7,71.6,30.11,SSE,167,0.0,4.0,79,0.00,CLR,,0.00,WeatherDisplay:10.37,2013-07-08 15:00:00,
2013-07-08 12:00:00,81.6,74.0,30.10,SSE,158,0.0,4.0,78,0.00,CLR,,0.00,WeatherDisplay:10.37,2013-07-08 16:00:00,
2013-07-08 13:00:00,79.2,71.4,30.09,ENE,60,0.0,6.0,77,0.00,OVC,,0.00,WeatherDisplay:10.37,2013-07-08 17:00:00,
2013-07-08 15:00:00,82.6,73.9,30.06,ENE,72,0.0,8.0,75,0.00,CLR,,0.00,WeatherDisplay:10.37,2013-07-08 19:00:00,
2013-07-08 16:00:00,83.5,73.5,30.03,NE,35,0.0,4.0,72,0.00,CLR,,0.00,WeatherDisplay:10.37,2013-07-08 20:00:00,
2013-07-08 17:00:00,82.5,75.0,30.02,ENE,71,0.0,4.0,78,0.00,BKN,,0.00,WeatherDisplay:10.37,2013-07-08 21:00:00,
2013-07-08 18:00:00,78.9,75.0,30.01,NE,41,0.0,2.0,88,0.00,BKN,,0.00,WeatherDisplay:10.37,2013-07-08 22:00:00,
2013-07-08 19:00:00,79.4,75.5,30.01,NNE,31,0.0,3.0,88,0.00,OVC,,0.00,WeatherDisplay:10.37,2013-07-08 23:00:00,
2013-07-08 21:00:00,72.2,70.7,30.05,ENE,64,0.0,3.0,95,0.00,-RA,,0.00,WeatherDisplay:10.37,2013-07-09 01:00:00,
2013-07-08 22:00:00,71.2,70.3,30.07,ENE,64,0.0,0.0,97,0.00,OVC,,0.00,WeatherDisplay:10.37,2013-07-09 02:00:00,
2013-07-08 23:00:00,70.9,70.3,30.09,ENE,64,0.0,0.0,98,0.00,OVC,,0.00,WeatherDisplay:10.37,2013-07-09 03:00:00,